Sunday, January 21, 2018, 5:01 AM GMT
Back to Local

CYBG, Bagotville, Que.

Location: , , Canada Lat: 48.333
Local Time: 5:01 AM GMT ( 5:01 GMT) Lon: -71
Time Zone: GMT Elev: 521 ft

Show me the last for .
Show Decoded

2018-01-21 04:28 METAR CYBG 210428Z 30011KT 12SM -SN OVC023 M11/M14 A2989 RMK SC8 SLP131 =
2018-01-21 04:00 METAR CYBG 210400Z 29015G21KT 20SM OVC025 M10/M14 A2987 RMK SC8 SLP126 =
2018-01-21 03:00 METAR CYBG 210300Z 29014G20KT 20SM DRSN BKN028 M10/M14 A2985 RMK SC7 SLP119 =
2018-01-21 02:00 METAR CYBG 210200Z 30019KT 15SM DRSN SCT032 M10/M15 A2981 RMK SC4 SLP107 =
2018-01-21 01:42 METAR CYBG 210142Z 30015G24KT 15SM DRSN SCT032 M10/M13 A2981 RMK SC4 SLP105 =
2018-01-21 01:00 METAR CYBG 210100Z 29020G25KT 15SM -SHSN DRSN OVC032 M09/M13 A2980 RMK SC8
                 SLP102 =
2018-01-21 00:42 METAR CYBG 210042Z 30016G25KT 15SM -SHSN DRSN OVC033 M09/M11 A2979 RMK SC8
                 SLP098 =
2018-01-21 00:00 METAR CYBG 210000Z 29021G33KT 15SM DRSN OVC031 M08/M12 A2975 RMK SC8 PRESRR
                 SLP086 =
2018-01-20 23:00 METAR CYBG 202300Z 30030G36KT 10SM DRSN BKN036 M08/M12 A2969 RMK SC7 PRESRR
                 SLP065 =
2018-01-20 22:00 METAR CYBG 202200Z 29023G32KT 15SM DRSN FEW035 SCT050 BKN240 M07/M11 A2962 RMK
                 SC2SC2CI2 PRESRR SLP040 =
2018-01-20 21:40 METAR CYBG 202140Z 29022G27KT 15SM DRSN BKN038 M07/M11 A2958 RMK SC5 PRESRR
                 SLP028 =
2018-01-20 21:00 METAR CYBG 202100Z 29020G35KT 15SM -SN DRSN BKN035 BKN090 M05/M09 A2953 RMK
                 SC6AC1 PRESRR PCPN VRY LGT SLP010 =
2018-01-20 20:00 METAR CYBG 202000Z 29026G32KT 25SM DRSN BKN041 OVC092 M02/M05 A2942 RMK SC5AC3
                 PRESRR /S01/ SLP973 =
2018-01-20 19:30 METAR CYBG 201930Z 29024G33KT 12SM DRSN SCT038 OVC093 M01/M03 A2938 RMK SC3AC5
                 PRESRR SLP958 =
2018-01-20 19:15 METAR CYBG 201915Z 29023G29KT 7SM -SHSN DRSN BKN038 OVC094 M01/M03 A2936 RMK
                 SC5AC3 PRESRR PCPN VRY LGT SLP953 =
2018-01-20 19:00 METAR CYBG 201900Z 29027G33KT 3SM -SHSN BLSN OVC038 M01/M03 A2935 RMK SC8 VIS
                 VRB 2-4 PRESRR SLP947 =
2018-01-20 18:43 METAR CYBG 201843Z 29027G32KT 3SM -SHSN BLSN OVC033 M01/M03 A2933 RMK SC8 VIS
                 VRB 2-4 PRESRR SLP941 =
2018-01-20 18:10 METAR CYBG 201810Z 26019G30KT 1SM R11/3500FT -SHSN BLSN VV008 01/M01 A2927 RMK
                 SN8 VIS VRB 3/4-1 1/4 PRESRR SLP920 =
2018-01-20 18:00 METAR CYBG 201800Z 25023G30KT 3SM -SHSN BLSN OVC031 02/M01 A2925 RMK SC8 VIS VRB
                 2-4 /S01/ SLP914 =
2018-01-20 17:45 METAR CYBG 201745Z 25020G29KT 6SM -SHSN DRSN BKN036 OVC060 02/M02 A2924 RMK
                 SC5SC3 SLP911 =
2018-01-20 17:20 METAR CYBG 201720Z 24018G24KT 15SM DRSN SCT039 OVC060 02/M02 A2923 RMK SC4SC4
                 SLP908 =
2018-01-20 17:00 METAR CYBG 201700Z 24014G21KT 10SM -SHSN DRSN FEW030 OVC050 01/M02 A2923 RMK
                 SC2SC6 PCPN VRY LGT SLP909 =
2018-01-20 16:14 METAR CYBG 201614Z 25024KT 6SM -SHSN BLSN BKN030 OVC070 01/M02 A2924 RMK SC5AC3
                 SLP911 =
2018-01-20 16:00 METAR CYBG 201600Z 24019G25KT 15SM DRSN SCT030 OVC070 01/M02 A2924 RMK SC3AC5
                 SLP911 =
2018-01-20 15:19 METAR CYBG 201519Z 25020G27KT 10SM -SHSN OVC030 M00/M02 A2923 RMK SC8 PCPN VRY
                 LGT SLP910 =
2018-01-20 15:00 METAR CYBG 201500Z 25022G31KT 5SM -SHSN BLSN OVC028 M00/M02 A2923 RMK SC8 SLP909
                 =
2018-01-20 14:28 METAR CYBG 201428Z 25017G30KT 4SM -SHSN BLSN OVC038 M00/M02 A2922 RMK SC8 VIS
                 VRB 3-5 SLP904 =
2018-01-20 14:00 METAR CYBG 201400Z 25015G24KT 6SM -SHSN BLSN OVC031 M01/M02 A2922 RMK SC8 SLP904
                 =
2018-01-20 13:46 METAR CYBG 201346Z 25018G25KT 7SM -SHSN OVC030 M00/M02 A2922 RMK SC8 SLP904 =
2018-01-20 13:30 METAR CYBG 201330Z 24016G24KT 4SM -SHSN BLSN OVC029 M01/M02 A2922 RMK SC8 SLP905
                 =
2018-01-20 13:00 METAR CYBG 201300Z 25012G17KT 15SM -SHSN OVC035 M01/M01 A2922 RMK SC8 PCPN VRY
                 LGT SLP904 =
2018-01-20 12:18 METAR CYBG 201218Z 25018KT 6SM -SN OVC037 M01/M03 A2922 RMK SC8 SLP904 =
2018-01-20 12:00 METAR CYBG 201200Z 25004KT 1 1/2SM -SN VV009 M02/M03 A2922 RMK SN8 VIS VRB 1-2
                 /S10/ SLP906 =
2018-01-20 11:00 METAR CYBG 201100Z 11002KT 1 1/4SM -SN VV008 M06/M07 A2925 RMK SN8 VIS VRB 3/4-1
                 3/4 /S09/ SLP915 =
2018-01-20 10:00 METAR CYBG 201000Z 10010KT 1 1/4SM -SN VV007 M06/M07 A2925 RMK SN8 VIS VRB 3/4-1
                 3/4 /S07/ SLP917 =
2018-01-20 09:00 METAR CYBG 200900Z 10010KT 1 1/4SM -SN VV007 M06/M08 A2927 RMK SN8 VIS VRB 3/4-1
                 3/4 /S06/ SLP922 =
2018-01-20 08:39 METAR CYBG 200839Z 10010KT 2SM -SN OVC015 M06/M08 A2928 RMK SN5SC3 VIS VRB 1-3
                 SLP926 =
2018-01-20 08:00 METAR CYBG 200800Z CCA 10011KT 3/4SM R11/P6000FT -SN VV004 M07/M08 A2931 RMK SN8
                 VIS VRB 1/2-1 PRESFR /S03/ SLP938 =
2018-01-20 07:00 METAR CYBG 200700Z 10011KT 1/2SM R11/3500FT SN VV004 M07/M09 A2941 RMK SN8 VIS
                 VRB 1/4-3/4 /S03/ SLP970 =
2018-01-20 06:47 METAR CYBG 200647Z 10012KT 1/2SM SN VV004 M07/M09 A2941 RMK SN8 VIS VRB 1/4-3/4
                 SLP970 =
2018-01-20 06:00 METAR CYBG 200600Z 09013KT 1SM R11/5500FT -SN VV006 M07/M09 A2940 RMK SN8 VIS
                 VRB 1/2-1 1/2 SLP967 =
2018-01-20 05:25 METAR CYBG 200525Z 10013G18KT 1SM -SN VV006 M07/M09 A2941 RMK SN8 VIS VRB 1/2-1
                 1/2 PRESFR SLP971 =

Support USWX by starting your Amazon purchase here.